• Join FlightAware (Why Join?)
  • Login
  • US Flag 
Rudolph Flight #1: Arrived! 
11:12PM EST


 

Airport Tracker/Info


-or-


 

Live Flight TrackerFlight Track Log ✈ VH-LSI ✈ 13-Apr-2013 ✈ YSCN / CDU - YSCN / CDU

Flight Track Log - Related Links

Times and Time Zones

All times are in EDT time to prevent confusion due to time zone crossing. See the VH-LSI flight status page for this flight to view local times or setup timezone preferences in your user account.

Time Position Orientation Groundspeed Altitude Reporting Facility
EDT Latitude Longitude Course Direction KTS MPH feet Rate Location/Type
02:24AM -33.7130 151.3131 185° South 111 128 1,500  Level Aus ATC (RADAR)
02:24AM -33.7208 151.3122 185° South 112 129 1,500 240 Level Aus ATC (RADAR)
02:25AM -33.7373 151.3105 185° South 99 114 1,700 180 Climbing Aus ATC (RADAR)
02:26AM -33.7278 151.3178 33° Northeast 75 86 1,800  Climbing Aus ATC (RADAR)
02:26AM -33.7265 151.3028 276° West 98 113 1,700 -120 Descending Aus ATC (RADAR)
02:27AM -33.7269 151.3121 93° East 83 96 1,700  Level Aus ATC (RADAR)
02:28AM -33.7380 151.3051 208° Southwest 97 112 1,700  Level Aus ATC (RADAR)
02:29AM -33.7246 151.3023 350° North 90 104 1,700 60 Level Aus ATC (RADAR)
02:29AM -33.7232 151.3130 81° East 81 93 1,800 -180 Climbing Aus ATC (RADAR)
02:30AM -33.7293 151.3004 240° Southwest 99 114 1,500 -180 Descending Aus ATC (RADAR)
02:31AM -33.7242 151.3026 20° North 82 94 1,600 360 Climbing Aus ATC (RADAR)
02:31AM -33.7336 151.3110 143° Southeast 91 105 1,800  Climbing Aus ATC (RADAR)
02:32AM -33.7480 151.2818 239° Southwest 107 123 1,600 -60 Descending Aus ATC (RADAR)
02:33AM -33.7605 151.2558 240° Southwest 104 120 1,700 60 Climbing Aus ATC (RADAR)
02:34AM -33.7702 151.2322 244° Southwest 103 119 1,700  Level Aus ATC (RADAR)
02:34AM -33.7776 151.2169 240° Southwest 89 102 1,700  Level Aus ATC (RADAR)
02:35AM -33.7903 151.1983 230° Southwest 74 85 1,700  Level Aus ATC (RADAR)
02:36AM -33.7854 151.1970 347° North 63 72 1,700  Level Aus ATC (RADAR)
02:37AM -33.7876 151.1942 226° Southwest 65 75 1,700  Level Aus ATC (RADAR)
02:37AM -33.7950 151.1954 172° South 70 81 1,700 60 Level Aus ATC (RADAR)
02:38AM -33.7966 151.2180 95° East 76 87 1,800 60 Climbing Aus ATC (RADAR)
02:39AM -33.7983 151.2361 97° East 83 96 1,800 -240 Level Aus ATC (RADAR)
02:39AM -33.7988 151.2430 95° East 82 94 1,600 -240 Descending Aus ATC (RADAR)
02:40AM -33.7989 151.2580 91° East 76 87 1,600 -120 Level Aus ATC (RADAR)
02:41AM -33.7987 151.2830 89° East 80 92 1,500  Descending Aus ATC (RADAR)
02:41AM -33.7904 151.2908 38° Northeast 79 91 1,600 60 Climbing Aus ATC (RADAR)
02:42AM -33.7727 151.2933 North 77 89 1,600  Level Aus ATC (RADAR)
02:42AM -33.7676 151.2948 14° North 76 87 1,600 -180 Level Aus ATC (RADAR)
02:43AM -33.7573 151.3002 24° Northeast 81 93 1,500 -240 Descending Aus ATC (RADAR)
02:46AM -33.7245 151.2034 292° West 1,500  Level Aus ATC (Calculated)
02:48AM -33.7124 151.1676 292° West  Level FlightAware Approximate
02:49AM -33.7036 151.1417 292° West  Level FlightAware Approximate
02:50AM -33.6948 151.1158 292° West  Level FlightAware Approximate
02:51AM -33.6860 151.0900 292° West  Level FlightAware Approximate
02:52AM -33.6948 151.1158 112° Southeast  Level FlightAware Approximate
02:52AM -33.6917 151.1067 360° North 1,500  Level Aus ATC (Calculated)
02:54AM -33.6514 151.1067 North  Level FlightAware Approximate
02:55AM -33.6687 151.0881 232° Southwest  Level Estimated
02:56AM -33.6855 151.0687 224° Southwest  Level FlightAware Approximate
02:57AM -33.7023 151.0493 224° Southwest  Level FlightAware Approximate
02:58AM -33.7190 151.0300 224° Southwest  Level FlightAware Approximate
02:59AM -33.7358 151.0106 224° Southwest  Level FlightAware Approximate
03:00AM -33.7525 150.9911 224° Southwest  Level FlightAware Approximate
03:00AM -33.8167 150.9167 360° North  Level Aus ATC (Calculated)
03:02AM -33.7775 150.9167 North  Level FlightAware Approximate
03:03AM -33.8008 150.9167 180° South  Level FlightAware Approximate
03:04AM -33.8196 150.9138 220° Southwest  Level FlightAware Approximate
03:05AM -33.8373 150.8956 220° Southwest  Level FlightAware Approximate
03:06AM -33.8550 150.8775 220° Southwest  Level FlightAware Approximate
03:07AM -33.8727 150.8593 220° Southwest  Level FlightAware Approximate
03:08AM -33.8904 150.8412 220° Southwest  Level FlightAware Approximate
03:09AM -33.9081 150.8230 220° Southwest  Level FlightAware Approximate
03:10AM -33.9259 150.8048 220° Southwest  Level FlightAware Approximate
03:11AM -33.9436 150.7866 220° Southwest  Level FlightAware Approximate
03:11AM -34.0402 150.6872 162° South  Level Aus ATC (Calculated)
03:13AM -34.0403 150.6872 North  Level Estimated
03:14AM -34.0403 150.6872 348° North  Level Estimated
03:15AM -34.0403 150.6872 348° North  Level Estimated
03:16AM -34.0403 150.6872 348° North  Level Estimated
03:17AM -34.0403 150.6872 220° Southwest  Level Estimated
03:18AM -34.0403 150.6872 220° Southwest  Level Estimated
03:19AM -34.0403 150.6872 220° Southwest  Level Estimated
03:20AM -34.0403 150.6872 220° Southwest  Level Estimated
03:21AM -34.0403 150.6872 220° Southwest  Level Estimated
03:22AM -34.0403 150.6872 220° Southwest  Level Estimated
03:23AM -34.0403 150.6872 220° Southwest  Level Estimated
03:24AM -34.0403 150.6872 220° Southwest  Level Estimated
03:25AM -34.0403 150.6872 220° Southwest  Level Estimated